Terminal Aerodrome Forecast
Issued by NWS Binghamton, NY

Home | Current Version | Previous Version | Text Only | Print | Product List | Glossary On
Versions: 1 2 3 4 5 6 7 8 9 10 11 12 13 14 15 16 17 18 19 20 21 22 23 24 25 26 27 28 29 30 31 32 33 34 35 36 37 38 39 40
000
FTUS41 KBGM 212333
TAFBGM
TAF
KBGM 212333Z 2200/2224 35005KT P6SM BKN022 OVC050
     FM220300 34005KT P6SM OVC015
     FM220900 34005KT 4SM BR OVC007
     FM221400 33007KT P6SM OVC015
     FM221800 34008KT P6SM BKN035=

USA.gov is the U.S. government's official web portal to all federal, state and local government web resources and services.